Time;durP1;ratioP1;P1;durP2;ratioP2;P2;SDS_P1;SDS_P2;PMS_P1;PMS_P2;Temp;Humidity;BMP_temperature;BMP_pressure;BME280_temperature;BME280_humidity;BME280_pressure;Samples;Min_cycle;Max_cycle;Signal;HPM_P1;HPM_P2
2022/02/25 00:02:19;;;;;;;2.90;2.60;;;4.40;99.90;;;;;;5028926;28;20866;-39
2022/02/25 00:04:45;;;;;;;2.43;2.20;;;3.90;99.90;;;;;;5028477;28;20217;-39
2022/02/25 00:07:11;;;;;;;2.60;2.20;;;3.90;99.90;;;;;;5028593;28;20183;-39
2022/02/25 00:09:36;;;;;;;3.73;2.40;;;3.80;99.90;;;;;;5018559;28;20622;-39
2022/02/25 00:12:02;;;;;;;4.07;2.57;;;4.00;99.90;;;;;;5028472;28;20193;-39
2022/02/25 00:14:28;;;;;;;2.93;2.43;;;3.90;99.90;;;;;;5028612;28;20579;-39
2022/02/25 00:16:54;;;;;;;3.33;2.10;;;4.00;99.90;;;;;;5030378;28;20421;-39
2022/02/25 00:19:20;;;;;;;4.27;3.20;;;3.90;99.90;;;;;;5030090;28;20537;-39
2022/02/25 00:21:46;;;;;;;4.00;2.40;;;3.60;99.90;;;;;;5047918;28;20227;-39
2022/02/25 00:24:12;;;;;;;3.57;2.30;;;3.80;99.90;;;;;;5036690;28;20457;-39
2022/02/25 00:26:38;;;;;;;4.47;2.30;;;3.90;99.90;;;;;;5022307;28;20425;-39
2022/02/25 00:29:04;;;;;;;4.43;2.70;;;3.60;99.90;;;;;;5028702;28;20780;-39
2022/02/25 00:31:31;;;;;;;3.73;2.27;;;3.70;99.90;;;;;;5029523;28;20433;-39
2022/02/25 00:33:57;;;;;;;5.13;2.23;;;4.00;99.90;;;;;;5028657;28;20453;-39
2022/02/25 00:36:23;;;;;;;4.30;2.30;;;4.00;99.90;;;;;;5029612;28;20451;-41
2022/02/25 00:38:48;;;;;;;5.87;2.40;;;3.80;99.90;;;;;;5026427;28;20369;-39
2022/02/25 00:41:14;;;;;;;2.40;2.10;;;3.80;99.90;;;;;;5020796;28;20417;-39
2022/02/25 00:43:40;;;;;;;3.10;1.90;;;3.80;99.90;;;;;;5028415;28;20249;-39
2022/02/25 00:46:06;;;;;;;2.93;2.40;;;3.90;99.90;;;;;;5029846;28;20210;-39
2022/02/25 00:48:31;;;;;;;3.00;2.37;;;4.00;99.90;;;;;;5029696;28;20193;-38
2022/02/25 00:50:57;;;;;;;3.17;2.50;;;3.80;99.90;;;;;;5028859;28;20187;-39
2022/02/25 00:53:23;;;;;;;4.70;2.60;;;3.90;99.90;;;;;;5030021;28;20229;-39
2022/02/25 00:55:48;;;;;;;5.93;2.73;;;3.80;99.90;;;;;;5020125;28;20214;-38
2022/02/25 00:58:14;;;;;;;4.30;2.70;;;3.70;99.90;;;;;;5027622;28;20256;-39
2022/02/25 01:00:40;;;;;;;3.43;2.63;;;4.10;99.90;;;;;;5029034;28;20186;-39
2022/02/25 01:03:06;;;;;;;5.90;2.80;;;3.90;99.90;;;;;;5027618;28;20692;-39
2022/02/25 01:05:32;;;;;;;5.07;2.60;;;4.00;99.90;;;;;;5029503;28;20425;-39
2022/02/25 01:08:03;;;;;;;5.87;2.60;;;4.10;99.90;;;;;;5028006;28;20495;-39
2022/02/25 01:10:29;;;;;;;6.23;2.73;;;3.90;99.90;;;;;;5016190;28;20470;-39
2022/02/25 01:12:55;;;;;;;5.50;3.23;;;3.90;99.90;;;;;;5029128;28;20461;-39
2022/02/25 01:15:20;;;;;;;5.63;2.53;;;4.00;99.90;;;;;;5029135;28;20190;-39
2022/02/25 01:17:46;;;;;;;5.67;3.47;;;4.00;99.90;;;;;;5029077;28;20616;-39
2022/02/25 01:20:12;;;;;;;4.73;3.30;;;3.90;99.90;;;;;;5028368;28;20178;-38
2022/02/25 01:22:38;;;;;;;5.13;2.53;;;3.70;99.90;;;;;;5041760;28;20665;-38
2022/02/25 01:25:04;;;;;;;6.27;3.47;;;4.00;99.90;;;;;;5029582;28;20500;-39
2022/02/25 01:27:31;;;;;;;3.37;2.83;;;3.90;99.90;;;;;;5027330;28;20496;-39
2022/02/25 01:29:57;;;;;;;5.47;2.97;;;4.00;99.90;;;;;;5028315;28;20417;-40
2022/02/25 01:32:23;;;;;;;6.80;2.83;;;3.90;99.90;;;;;;5028984;28;20487;-39
2022/02/25 01:34:49;;;;;;;5.83;2.97;;;4.10;99.90;;;;;;5028549;28;20194;-39
2022/02/25 01:37:15;;;;;;;6.47;3.20;;;4.00;99.90;;;;;;5029314;28;20216;-39
2022/02/25 01:39:41;;;;;;;5.00;3.00;;;4.00;99.90;;;;;;5023021;28;20471;-39
2022/02/25 01:42:07;;;;;;;4.27;2.97;;;3.90;99.90;;;;;;5023780;28;20918;-39
2022/02/25 01:44:41;;;;;;;5.73;2.80;;;3.80;99.90;;;;;;5028272;28;20214;-38
2022/02/25 01:47:08;;;;;;;6.80;3.60;;;3.60;99.90;;;;;;5028631;28;20783;-39
2022/02/25 01:49:35;;;;;;;2.80;2.60;;;3.60;99.90;;;;;;5027958;28;20715;-39
2022/02/25 01:52:07;;;;;;;4.23;2.97;;;3.40;99.90;;;;;;5028203;28;20426;-39
2022/02/25 01:54:33;;;;;;;5.53;2.90;;;3.50;99.90;;;;;;5025030;28;20562;-39
2022/02/25 01:57:00;;;;;;;5.30;2.83;;;3.50;99.90;;;;;;5021923;28;20453;-39
2022/02/25 01:59:27;;;;;;;3.23;2.83;;;3.60;99.90;;;;;;5028012;28;20428;-39
2022/02/25 02:01:53;;;;;;;2.77;2.50;;;3.50;99.90;;;;;;5027403;28;20794;-38
2022/02/25 02:04:19;;;;;;;4.53;2.60;;;3.40;99.90;;;;;;5028115;28;20449;-38
2022/02/25 02:06:45;;;;;;;3.43;2.53;;;3.70;99.90;;;;;;5027808;28;20876;-39
2022/02/25 02:09:11;;;;;;;9.93;2.67;;;3.60;99.90;;;;;;5028452;28;20456;-38
2022/02/25 02:11:40;;;;;;;4.50;2.60;;;3.50;99.90;;;;;;5018416;28;20193;-38
2022/02/25 02:14:12;;;;;;;4.23;2.20;;;3.60;99.90;;;;;;5026296;28;20186;-39
2022/02/25 02:16:39;;;;;;;6.20;2.50;;;3.50;99.90;;;;;;5027912;28;20538;-39
2022/02/25 02:19:06;;;;;;;5.13;3.03;;;3.60;99.90;;;;;;5028360;28;20429;-39
2022/02/25 02:21:35;;;;;;;3.93;2.90;;;3.50;99.90;;;;;;5031196;28;20447;-39
2022/02/25 02:24:01;;;;;;;4.40;2.23;;;3.70;99.90;;;;;;5048070;28;20452;-39
2022/02/25 02:26:29;;;;;;;6.73;2.20;;;3.70;99.90;;;;;;5016219;28;20445;-39
2022/02/25 02:28:55;;;;;;;5.93;2.40;;;4.00;99.90;;;;;;5027808;28;20496;-39
2022/02/25 02:31:21;;;;;;;3.37;2.20;;;3.80;99.90;;;;;;5025808;28;20428;-39
2022/02/25 02:33:46;;;;;;;6.10;2.37;;;3.70;99.90;;;;;;5027582;28;20421;-39
2022/02/25 02:36:13;;;;;;;5.00;2.67;;;3.60;99.90;;;;;;5027726;28;20278;-39
2022/02/25 02:38:39;;;;;;;5.30;2.20;;;3.70;99.90;;;;;;5027613;28;20360;-39
2022/02/25 02:41:06;;;;;;;5.27;3.00;;;3.50;99.90;;;;;;5018207;28;20429;-39
2022/02/25 02:43:32;;;;;;;5.67;2.77;;;3.60;99.90;;;;;;5027206;28;20494;-39
2022/02/25 02:45:58;;;;;;;4.33;2.33;;;3.70;99.90;;;;;;5027557;28;20793;-39
2022/02/25 02:48:25;;;;;;;6.60;2.83;;;3.70;99.90;;;;;;5027150;28;20461;-39
2022/02/25 02:50:50;;;;;;;7.77;2.80;;;3.70;99.90;;;;;;5027201;28;20421;-39
2022/02/25 02:53:16;;;;;;;6.40;2.33;;;3.70;99.90;;;;;;5027390;28;20422;-39
2022/02/25 02:55:43;;;;;;;4.83;2.10;;;3.80;99.90;;;;;;5018085;28;20193;-39
2022/02/25 02:58:09;;;;;;;3.07;2.00;;;3.90;99.90;;;;;;5021552;28;20198;-39
2022/02/25 03:00:35;;;;;;;11.60;2.30;;;3.80;99.90;;;;;;5026668;28;20429;-39
2022/02/25 03:03:01;;;;;;;5.00;2.20;;;3.90;99.90;;;;;;5027099;28;20457;-39
2022/02/25 03:05:27;;;;;;;3.70;2.33;;;4.10;99.90;;;;;;5027235;28;20483;-39
2022/02/25 03:07:53;;;;;;;7.83;2.63;;;3.80;99.90;;;;;;5026177;28;20183;-39
2022/02/25 03:10:19;;;;;;;7.73;3.13;;;3.70;99.90;;;;;;5020377;28;20444;-38
2022/02/25 03:12:45;;;;;;;6.17;2.20;;;3.80;99.90;;;;;;5021974;28;20422;-39
2022/02/25 03:15:12;;;;;;;3.63;2.43;;;3.60;99.90;;;;;;5027119;28;20540;-39
2022/02/25 03:17:37;;;;;;;5.40;2.60;;;3.60;99.90;;;;;;5027419;28;20417;-39
2022/02/25 03:20:08;;;;;;;4.60;2.00;;;3.40;99.90;;;;;;5026451;28;20971;-39
2022/02/25 03:22:34;;;;;;;2.47;1.60;;;3.50;99.90;;;;;;5040070;28;20186;-39
2022/02/25 03:25:01;;;;;;;9.17;2.20;;;3.60;99.90;;;;;;5040843;28;21060;-39
2022/02/25 03:27:28;;;;;;;5.23;2.53;;;3.80;99.90;;;;;;5027889;28;20343;-39
2022/02/25 03:29:54;;;;;;;3.37;1.67;;;3.50;99.90;;;;;;5030299;28;20427;-38
2022/02/25 03:32:20;;;;;;;8.20;2.00;;;3.70;99.90;;;;;;5031189;28;20722;-39
2022/02/25 03:34:46;;;;;;;3.33;1.67;;;3.70;99.90;;;;;;5031061;28;20460;-39
2022/02/25 03:37:12;;;;;;;6.50;2.77;;;3.70;99.90;;;;;;5031108;28;20431;-39
2022/02/25 03:39:38;;;;;;;7.97;1.90;;;3.70;99.90;;;;;;5029397;28;20855;-39
2022/02/25 03:42:04;;;;;;;4.80;2.00;;;3.50;99.90;;;;;;5025301;28;20171;-38
2022/02/25 03:44:30;;;;;;;5.93;2.20;;;3.70;99.90;;;;;;5029095;28;20234;-39
2022/02/25 03:46:55;;;;;;;4.57;1.70;;;3.70;99.90;;;;;;5030641;28;20468;-39
2022/02/25 03:49:21;;;;;;;7.20;2.60;;;3.70;99.90;;;;;;5029531;28;20467;-39
2022/02/25 03:51:47;;;;;;;7.47;2.07;;;3.50;99.90;;;;;;5030007;28;20196;-39
2022/02/25 03:54:13;;;;;;;4.63;2.17;;;3.40;99.90;;;;;;5030725;28;20531;-39
2022/02/25 03:56:38;;;;;;;4.30;1.93;;;3.60;99.90;;;;;;5020489;28;20441;-38
2022/02/25 03:59:04;;;;;;;6.77;2.20;;;3.50;99.90;;;;;;5029323;28;20179;-38
2022/02/25 04:01:30;;;;;;;3.67;1.90;;;3.80;99.90;;;;;;5029782;28;20281;-39
2022/02/25 04:03:57;;;;;;;3.63;2.60;;;3.70;99.90;;;;;;5030165;28;20302;-39
2022/02/25 04:06:23;;;;;;;3.93;1.70;;;3.60;99.90;;;;;;5030831;28;20475;-38
2022/02/25 04:08:49;;;;;;;4.33;1.80;;;3.70;99.90;;;;;;5030146;28;20452;-39
2022/02/25 04:11:15;;;;;;;8.17;2.30;;;3.80;99.90;;;;;;5020692;28;20453;-39
2022/02/25 04:13:41;;;;;;;5.60;2.43;;;3.60;99.90;;;;;;5037415;28;20225;-38
2022/02/25 04:16:07;;;;;;;4.50;1.93;;;3.50;99.90;;;;;;5030319;28;20936;-39
2022/02/25 04:18:33;;;;;;;6.40;1.97;;;3.60;99.90;;;;;;5030143;28;20186;-38
2022/02/25 04:20:59;;;;;;;4.30;1.60;;;3.70;99.90;;;;;;5041851;28;20420;-39
2022/02/25 04:23:25;;;;;;;1.90;1.30;;;3.90;99.90;;;;;;5049767;28;20455;-39
2022/02/25 04:25:51;;;;;;;4.53;1.63;;;3.70;99.90;;;;;;5035922;28;20517;-39
2022/02/25 04:28:17;;;;;;;6.63;2.00;;;3.80;99.90;;;;;;5026490;28;21001;-39
2022/02/25 04:30:43;;;;;;;5.73;2.30;;;3.70;99.90;;;;;;5029454;28;20417;-39
2022/02/25 04:33:09;;;;;;;5.33;2.03;;;3.70;99.90;;;;;;5030155;28;20273;-39
2022/02/25 04:35:35;;;;;;;3.33;1.50;;;3.60;99.90;;;;;;5029856;28;20520;-39
2022/02/25 04:38:01;;;;;;;7.10;2.63;;;3.50;99.90;;;;;;5029263;28;20413;-39
2022/02/25 04:40:27;;;;;;;5.13;1.77;;;3.50;99.90;;;;;;5026732;28;20429;-39
2022/02/25 04:42:53;;;;;;;3.63;1.80;;;3.70;99.90;;;;;;5029127;28;20409;-39
2022/02/25 04:45:18;;;;;;;5.57;2.77;;;3.60;99.90;;;;;;5029445;28;20968;-39
2022/02/25 04:47:45;;;;;;;5.67;1.70;;;3.60;99.90;;;;;;5029832;28;20202;-39
2022/02/25 04:50:12;;;;;;;9.30;1.87;;;3.50;99.90;;;;;;5029104;28;20241;-39
2022/02/25 04:52:40;;;;;;;4.50;1.70;;;3.80;99.90;;;;;;5015603;28;20409;-39
2022/02/25 04:55:06;;;;;;;3.50;1.87;;;3.60;99.90;;;;;;5029375;28;20833;-39
2022/02/25 04:57:32;;;;;;;7.37;2.00;;;3.50;99.90;;;;;;5016751;28;20456;-39
2022/02/25 04:59:57;;;;;;;3.43;1.40;;;3.50;99.90;;;;;;5028580;28;20496;-39
2022/02/25 05:02:23;;;;;;;4.30;1.80;;;3.60;99.90;;;;;;5029578;28;20182;-39
2022/02/25 05:04:49;;;;;;;5.40;2.37;;;3.50;99.90;;;;;;5029208;28;20213;-39
2022/02/25 05:07:15;;;;;;;5.77;1.67;;;3.60;99.90;;;;;;5028062;28;20197;-39
2022/02/25 05:09:41;;;;;;;5.13;2.07;;;3.50;99.90;;;;;;5028756;28;20920;-39
2022/02/25 05:12:07;;;;;;;6.73;2.40;;;3.60;99.90;;;;;;5016038;28;20442;-39
2022/02/25 05:20:24;;;;;;;7.57;4.03;;;3.30;99.90;;;;;;5028668;28;20437;-39
2022/02/25 05:22:51;;;;;;;8.33;2.67;;;3.50;99.90;;;;;;5044162;28;20490;-39
2022/02/25 05:25:17;;;;;;;7.97;2.33;;;3.40;99.90;;;;;;5049029;28;20452;-39
2022/02/25 05:27:43;;;;;;;6.87;3.03;;;3.30;99.90;;;;;;5018949;28;20982;-39
2022/02/25 05:30:09;;;;;;;9.17;2.27;;;3.50;99.90;;;;;;5028322;28;20193;-39
2022/02/25 05:32:35;;;;;;;3.20;2.00;;;3.60;99.90;;;;;;5029070;28;20186;-39
2022/02/25 05:35:01;;;;;;;4.87;1.83;;;3.70;99.90;;;;;;5028597;28;20421;-38
2022/02/25 05:37:27;;;;;;;7.10;2.00;;;3.60;99.90;;;;;;5028625;28;20194;-39
2022/02/25 05:39:52;;;;;;;8.70;2.80;;;3.50;99.90;;;;;;5028338;28;20224;-39
2022/02/25 05:42:19;;;;;;;4.10;1.97;;;3.30;99.90;;;;;;5019305;28;21064;-39
2022/02/25 05:44:45;;;;;;;6.57;2.23;;;3.50;99.90;;;;;;5023842;28;20583;-40
2022/02/25 05:47:11;;;;;;;6.80;1.83;;;3.50;99.90;;;;;;5026086;28;20418;-39
2022/02/25 05:49:37;;;;;;;6.03;2.03;;;3.40;99.90;;;;;;5026964;28;20510;-39
2022/02/25 05:52:03;;;;;;;5.43;2.57;;;3.40;99.90;;;;;;5043921;28;20511;-38
2022/02/25 05:54:28;;;;;;;6.10;2.37;;;3.30;99.90;;;;;;5047008;28;20197;-39
2022/02/25 05:56:54;;;;;;;5.77;2.13;;;3.20;99.90;;;;;;5031077;28;20457;-39
2022/02/25 05:59:20;;;;;;;11.83;2.60;;;3.30;99.90;;;;;;5024929;28;20265;-39
2022/02/25 06:01:45;;;;;;;6.13;1.90;;;3.20;99.90;;;;;;5027744;28;20235;-40
2022/02/25 06:04:11;;;;;;;9.17;2.20;;;3.30;99.90;;;;;;5028109;28;20552;-38
2022/02/25 06:06:36;;;;;;;8.20;2.20;;;3.50;99.90;;;;;;5043835;28;20660;-40
2022/02/25 06:09:02;;;;;;;10.23;2.20;;;3.40;99.90;;;;;;5048220;28;20592;-39
2022/02/25 06:11:28;;;;;;;5.53;2.70;;;3.50;99.90;;;;;;5038379;28;20583;-39
2022/02/25 06:13:54;;;;;;;5.73;2.47;;;3.40;99.90;;;;;;5020161;28;20441;-39
2022/02/25 06:16:19;;;;;;;4.37;1.83;;;3.60;99.90;;;;;;5028470;28;20660;-40
2022/02/25 06:18:45;;;;;;;7.40;2.23;;;3.40;99.90;;;;;;5027953;28;20190;-39
2022/02/25 06:21:11;;;;;;;6.37;2.00;;;3.50;99.90;;;;;;5028692;28;20280;-39
2022/02/25 06:23:36;;;;;;;9.40;2.60;;;3.60;99.90;;;;;;5048096;28;20515;-39
2022/02/25 06:26:02;;;;;;;6.30;2.60;;;3.70;99.90;;;;;;5045738;28;20656;-39
2022/02/25 06:28:30;;;;;;;6.53;1.93;;;3.60;99.90;;;;;;5019272;28;20277;-40
2022/02/25 06:30:56;;;;;;;10.27;2.03;;;3.50;99.90;;;;;;5027278;28;20190;-40
2022/02/25 06:33:21;;;;;;;7.30;2.30;;;3.50;99.90;;;;;;5026809;28;20428;-39
2022/02/25 06:35:47;;;;;;;7.63;3.00;;;3.50;99.90;;;;;;5027749;28;20202;-39
2022/02/25 06:38:13;;;;;;;13.60;3.13;;;3.50;99.90;;;;;;5027964;28;20200;-40
2022/02/25 06:40:38;;;;;;;6.23;1.80;;;3.30;99.90;;;;;;5022738;28;20209;-39
2022/02/25 06:43:04;;;;;;;7.33;2.33;;;3.50;99.90;;;;;;5017171;28;20209;-39
2022/02/25 06:45:30;;;;;;;9.30;2.10;;;3.50;99.90;;;;;;5027130;28;20610;-39
2022/02/25 06:47:55;;;;;;;5.90;2.80;;;3.40;99.90;;;;;;5027256;28;20240;-39
2022/02/25 06:50:21;;;;;;;6.20;2.27;;;3.50;99.90;;;;;;5026985;28;20645;-39
2022/02/25 06:52:47;;;;;;;6.37;1.80;;;3.50;99.90;;;;;;5035343;28;20692;-39
2022/02/25 06:55:14;;;;;;;7.87;2.60;;;3.20;99.90;;;;;;5037880;28;20594;-39
2022/02/25 06:57:41;;;;;;;8.17;2.90;;;3.20;99.90;;;;;;5021063;28;20801;-39
2022/02/25 07:00:07;;;;;;;8.70;3.07;;;3.40;99.90;;;;;;5026424;28;20419;-40
2022/02/25 07:02:33;;;;;;;5.67;2.27;;;3.30;99.90;;;;;;5025327;28;20935;-39
2022/02/25 07:04:59;;;;;;;4.70;2.20;;;3.30;99.90;;;;;;5025831;28;21024;-39
2022/02/25 07:07:25;;;;;;;7.53;2.87;;;3.40;99.90;;;;;;5027399;28;20461;-39
2022/02/25 07:09:50;;;;;;;6.30;2.13;;;3.70;99.90;;;;;;5023585;28;20175;-39
2022/02/25 07:12:16;;;;;;;6.60;2.83;;;3.50;99.90;;;;;;5021065;28;20282;-39
2022/02/25 07:14:42;;;;;;;9.97;2.53;;;3.50;99.90;;;;;;5024702;28;20194;-40
2022/02/25 07:17:07;;;;;;;4.90;1.90;;;3.30;99.90;;;;;;5026501;28;20192;-39
2022/02/25 07:19:33;;;;;;;6.37;2.40;;;3.50;99.90;;;;;;5026755;28;20206;-38
2022/02/25 07:21:59;;;;;;;8.87;2.10;;;3.60;99.90;;;;;;5029378;28;20638;-39
2022/02/25 07:24:24;;;;;;;5.87;2.13;;;3.50;99.90;;;;;;5025299;28;20237;-39
2022/02/25 07:26:50;;;;;;;8.43;2.10;;;3.60;99.90;;;;;;5022468;28;20190;-39
2022/02/25 07:29:16;;;;;;;6.13;2.00;;;3.80;99.90;;;;;;5025552;28;20190;-41
2022/02/25 07:31:41;;;;;;;8.80;2.57;;;3.80;99.90;;;;;;5025757;28;20323;-39
2022/02/25 07:34:07;;;;;;;6.00;2.70;;;4.10;99.90;;;;;;5025725;28;20248;-41
2022/02/25 07:36:34;;;;;;;8.93;2.47;;;4.00;99.90;;;;;;5027214;28;20186;-39
2022/02/25 07:38:59;;;;;;;6.47;2.27;;;4.10;99.90;;;;;;5025645;28;21070;-39
2022/02/25 07:41:25;;;;;;;4.43;2.23;;;4.10;99.90;;;;;;5025840;28;20487;-40
2022/02/25 07:43:51;;;;;;;10.90;2.30;;;4.50;99.90;;;;;;5012031;28;20519;-39
2022/02/25 07:46:17;;;;;;;8.40;2.40;;;4.40;99.90;;;;;;5025838;28;20417;-39
2022/02/25 07:48:43;;;;;;;8.67;2.70;;;4.10;99.90;;;;;;5026884;28;20189;-39
2022/02/25 07:51:09;;;;;;;8.60;2.10;;;4.30;99.90;;;;;;5025637;28;20240;-39
2022/02/25 07:53:35;;;;;;;6.57;2.87;;;4.30;99.90;;;;;;5026770;28;20986;-39
2022/02/25 07:56:02;;;;;;;6.60;2.17;;;4.30;99.90;;;;;;5027056;28;20420;-39
2022/02/25 07:58:28;;;;;;;9.10;2.87;;;4.50;99.90;;;;;;5015337;28;20453;-39
2022/02/25 08:00:53;;;;;;;4.47;2.13;;;4.60;99.90;;;;;;5024555;28;20436;-39
2022/02/25 08:03:19;;;;;;;7.00;2.20;;;4.30;99.90;;;;;;5022183;28;20221;-40
2022/02/25 08:05:45;;;;;;;9.97;2.43;;;4.20;99.90;;;;;;5026599;28;20421;-39
2022/02/25 08:08:11;;;;;;;10.00;2.40;;;4.50;99.90;;;;;;5026939;28;20294;-39
2022/02/25 08:10:37;;;;;;;13.80;2.90;;;4.10;99.90;;;;;;5026892;28;20436;-39
2022/02/25 08:13:04;;;;;;;5.47;2.00;;;4.10;99.90;;;;;;5020692;28;20175;-39
2022/02/25 08:15:33;;;;;;;9.83;4.53;;;3.70;99.90;;;;;;5029936;28;20764;-42
2022/02/25 08:17:59;;;;;;;10.80;2.07;;;3.90;99.90;;;;;;5029638;28;20486;-40
2022/02/25 08:20:25;;;;;;;4.80;2.20;;;3.90;99.90;;;;;;5029179;28;20425;-39
2022/02/25 08:22:51;;;;;;;6.40;2.70;;;3.80;99.90;;;;;;5045351;28;20417;-39
2022/02/25 08:25:17;;;;;;;10.93;2.90;;;3.80;99.90;;;;;;5049730;28;20192;-39
2022/02/25 08:27:43;;;;;;;7.80;2.50;;;3.60;99.90;;;;;;5036158;28;20434;-39
2022/02/25 08:30:14;;;;;;;6.87;2.33;;;3.60;99.90;;;;;;5024265;28;20418;-39
2022/02/25 08:32:45;;;;;;;7.33;2.30;;;3.50;99.90;;;;;;5029963;28;20533;-39
2022/02/25 08:35:11;;;;;;;11.23;2.80;;;3.80;99.90;;;;;;5030093;28;20908;-39
2022/02/25 08:37:37;;;;;;;7.30;2.63;;;3.70;99.90;;;;;;5029652;28;20920;-40
2022/02/25 08:40:03;;;;;;;10.33;2.80;;;3.80;99.90;;;;;;5029792;28;20425;-39
2022/02/25 08:42:30;;;;;;;7.97;2.50;;;3.80;99.90;;;;;;5026050;28;20853;-39
2022/02/25 08:44:56;;;;;;;6.90;2.87;;;3.90;99.90;;;;;;5023439;28;20556;-40
2022/02/25 08:47:22;;;;;;;5.00;2.13;;;3.90;99.90;;;;;;5029830;28;20456;-40
2022/02/25 08:49:48;;;;;;;4.20;2.10;;;3.60;99.90;;;;;;5029427;28;20500;-39
2022/02/25 08:52:14;;;;;;;9.23;3.00;;;3.90;99.90;;;;;;5028507;28;20512;-39
2022/02/25 08:54:40;;;;;;;5.53;2.17;;;4.00;99.90;;;;;;5028370;28;20186;-39
2022/02/25 08:57:06;;;;;;;10.03;2.93;;;3.60;99.90;;;;;;5027332;28;20666;-40
2022/02/25 08:59:33;;;;;;;6.77;2.67;;;3.60;99.90;;;;;;5019662;28;20425;-40
2022/02/25 09:01:59;;;;;;;7.40;2.50;;;3.60;99.90;;;;;;5029335;28;20436;-39
2022/02/25 09:04:25;;;;;;;8.17;2.63;;;3.90;99.90;;;;;;5028137;28;20467;-39
2022/02/25 09:06:51;;;;;;;12.20;3.00;;;3.80;99.90;;;;;;5029473;28;20543;-39
2022/02/25 09:09:16;;;;;;;5.83;2.83;;;3.90;99.90;;;;;;5029276;28;20422;-39
2022/02/25 09:11:42;;;;;;;11.40;3.17;;;3.80;99.90;;;;;;5027305;28;20217;-39
2022/02/25 09:14:08;;;;;;;9.50;3.33;;;4.00;99.90;;;;;;5020840;28;20261;-39
2022/02/25 09:16:33;;;;;;;8.90;3.53;;;3.90;99.90;;;;;;5027861;28;20210;-40
2022/02/25 09:18:59;;;;;;;12.60;3.73;;;3.90;99.90;;;;;;5029575;28;20222;-39
2022/02/25 09:21:26;;;;;;;12.07;3.10;;;4.00;99.90;;;;;;5040080;28;20194;-38
2022/02/25 09:23:52;;;;;;;5.57;3.77;;;3.90;99.90;;;;;;5048754;28;20640;-40
2022/02/25 09:26:18;;;;;;;8.67;3.50;;;4.00;99.90;;;;;;5048542;28;20956;-39
2022/02/25 09:28:44;;;;;;;6.47;2.97;;;3.90;99.90;;;;;;5025863;28;20219;-39
2022/02/25 09:31:09;;;;;;;8.13;3.03;;;4.30;99.90;;;;;;5024102;28;20665;-39
2022/02/25 09:33:36;;;;;;;10.17;4.70;;;4.40;99.90;;;;;;5029029;28;20433;-39
2022/02/25 09:36:03;;;;;;;8.20;3.83;;;4.70;99.90;;;;;;5028656;28;20187;-39
2022/02/25 09:38:28;;;;;;;6.63;2.87;;;5.00;99.90;;;;;;5029000;28;20421;-39
2022/02/25 09:40:54;;;;;;;8.93;3.00;;;5.30;99.90;;;;;;5027696;28;20425;-39
2022/02/25 09:43:21;;;;;;;11.93;3.27;;;5.30;99.90;;;;;;5020678;28;20535;-39
2022/02/25 09:45:48;;;;;;;6.70;3.20;;;5.60;99.90;;;;;;5025652;28;20182;-39
2022/02/25 09:48:13;;;;;;;11.37;3.60;;;5.50;99.90;;;;;;5028475;28;20421;-39
2022/02/25 09:50:42;;;;;;;8.27;2.90;;;5.50;99.90;;;;;;5027930;28;20421;-39
2022/02/25 09:53:09;;;;;;;7.57;3.30;;;5.40;99.90;;;;;;5028560;28;20187;-41
2022/02/25 09:55:35;;;;;;;9.40;3.17;;;5.60;99.90;;;;;;5028272;28;20413;-39
2022/02/25 09:58:07;;;;;;;9.27;4.50;;;5.30;99.90;;;;;;5021956;28;20575;-39
2022/02/25 10:00:35;;;;;;;11.07;4.00;;;5.30;99.90;;;;;;5020135;28;20907;-39
2022/02/25 10:03:05;;;;;;;7.73;4.00;;;5.50;99.90;;;;;;5028375;28;20498;-39
2022/02/25 10:05:33;;;;;;;8.63;3.83;;;5.50;99.90;;;;;;5028418;28;20471;-39
2022/02/25 10:08:25;;;;;;;11.07;4.80;;;5.50;99.90;;;;;;5027919;28;20508;-39
2022/02/25 10:10:54;;;;;;;9.50;3.20;;;5.40;99.90;;;;;;5027433;28;20432;-40
2022/02/25 10:13:23;;;;;;;9.23;4.27;;;5.30;99.90;;;;;;5024803;28;20512;-39
2022/02/25 10:15:57;;;;;;;11.87;5.60;;;5.50;99.90;;;;;;5022303;28;20417;-39
2022/02/25 10:18:28;;;;;;;11.87;5.33;;;5.50;99.90;;;;;;5027749;28;20989;-39
2022/02/25 10:21:12;;;;;;;11.60;4.70;;;5.40;99.90;;;;;;5027871;28;20851;-39
2022/02/25 10:23:40;;;;;;;13.17;4.40;;;5.60;99.90;;;;;;5015973;28;20552;-39
2022/02/25 10:26:10;;;;;;;12.13;5.60;;;5.40;99.90;;;;;;5027904;28;20413;-40
2022/02/25 10:28:39;;;;;;;16.13;4.70;;;5.50;99.90;;;;;;5020844;28;20865;-41
2022/02/25 10:31:23;;;;;;;15.30;4.87;;;5.50;99.90;;;;;;5023304;28;20753;-39
2022/02/25 10:34:09;;;;;;;12.83;5.07;;;5.50;99.90;;;;;;5023865;28;20431;-39
2022/02/25 10:36:45;;;;;;;9.97;4.97;;;5.60;99.90;;;;;;5027358;28;21037;-39
2022/02/25 10:39:30;;;;;;;13.57;6.70;;;5.60;99.90;;;;;;5027805;28;20443;-39
2022/02/25 10:42:15;;;;;;;11.30;5.03;;;5.60;99.90;;;;;;5027403;28;20421;-42
2022/02/25 10:44:44;;;;;;;9.87;4.63;;;5.90;99.90;;;;;;5014565;28;20890;-40
2022/02/25 10:47:30;;;;;;;16.57;5.33;;;5.70;99.90;;;;;;5027460;28;21115;-39
2022/02/25 10:49:59;;;;;;;17.73;4.90;;;5.90;99.90;;;;;;5026769;28;20810;-39
2022/02/25 10:52:44;;;;;;;8.73;5.03;;;5.80;99.90;;;;;;5027490;28;20479;-39
2022/02/25 10:55:18;;;;;;;11.53;5.57;;;6.10;99.90;;;;;;5027422;28;20444;-40
2022/02/25 10:57:44;;;;;;;7.33;4.60;;;6.40;99.90;;;;;;5025991;28;20998;-40
2022/02/25 11:00:12;;;;;;;10.47;6.37;;;6.50;99.90;;;;;;5015099;28;20436;-39
2022/02/25 11:02:44;;;;;;;12.43;5.30;;;6.50;99.90;;;;;;5027442;28;20797;-39
2022/02/25 11:05:12;;;;;;;19.07;8.50;;;6.60;99.90;;;;;;5027139;28;20472;-43
2022/02/25 11:07:44;;;;;;;12.00;6.87;;;6.80;99.90;;;;;;5027436;28;20880;-39
2022/02/25 11:10:13;;;;;;;14.77;5.70;;;6.90;99.90;;;;;;5026476;28;20449;-39
2022/02/25 11:12:41;;;;;;;8.43;5.00;;;6.70;99.90;;;;;;5027133;28;20417;-39
2022/02/25 11:15:09;;;;;;;14.53;5.20;;;7.00;99.90;;;;;;5017501;28;20437;-40
2022/02/25 11:17:37;;;;;;;13.57;5.50;;;7.20;99.90;;;;;;5027292;28;20790;-40
2022/02/25 11:20:06;;;;;;;10.90;6.13;;;7.10;99.90;;;;;;5031224;28;20851;-40
2022/02/25 11:22:36;;;;;;;7.90;5.33;;;7.10;99.90;;;;;;5038818;28;20783;-39
2022/02/25 11:25:02;;;;;;;12.30;4.63;;;7.20;99.90;;;;;;5045876;28;20735;-40
2022/02/25 11:27:27;;;;;;;11.97;5.40;;;6.90;99.90;;;;;;5047033;28;20696;-39
2022/02/25 11:30:27;;;;;;;17.80;6.73;;;6.90;99.90;;;;;;5022024;28;20441;-39
2022/02/25 11:33:04;;;;;;;14.00;4.60;;;6.60;99.90;;;;;;5025748;28;20240;-39
2022/02/25 11:35:51;;;;;;;10.77;4.90;;;6.70;99.90;;;;;;5025634;28;20511;-40
2022/02/25 11:38:25;;;;;;;8.47;4.77;;;6.60;99.90;;;;;;5026961;28;20943;-40
2022/02/25 11:40:54;;;;;;;10.17;5.47;;;6.70;99.90;;;;;;5026366;28;20425;-40
2022/02/25 11:43:41;;;;;;;12.53;4.57;;;6.70;99.90;;;;;;5024142;28;20467;-40
2022/02/25 11:46:10;;;;;;;12.63;4.90;;;6.80;99.90;;;;;;5026125;28;20539;-40
2022/02/25 11:48:41;;;;;;;9.60;5.10;;;6.70;99.90;;;;;;5029242;28;20520;-40
2022/02/25 11:51:22;;;;;;;10.57;5.40;;;6.70;99.90;;;;;;5017730;28;20413;-40
2022/02/25 11:53:48;;;;;;;6.93;3.93;;;6.60;99.90;;;;;;5030592;28;20494;-39
2022/02/25 11:56:16;;;;;;;9.73;4.40;;;6.50;99.90;;;;;;5030961;28;20436;-39
2022/02/25 11:58:49;;;;;;;10.67;4.40;;;6.20;99.90;;;;;;5025596;28;20192;-39
2022/02/25 12:01:20;;;;;;;8.80;4.60;;;6.20;99.90;;;;;;5021249;28;20425;-39
2022/02/25 12:04:06;;;;;;;11.13;5.60;;;6.20;99.90;;;;;;5027777;28;20861;-39
2022/02/25 12:07:04;;;;;;;13.10;5.27;;;6.10;99.90;;;;;;5030626;28;20854;-40
2022/02/25 12:09:55;;;;;;;6.77;4.50;;;6.00;99.90;;;;;;5030558;28;20436;-39
2022/02/25 12:12:23;;;;;;;9.00;6.20;;;6.00;99.90;;;;;;5030798;28;20779;-39
2022/02/25 12:15:10;;;;;;;12.23;6.13;;;6.10;99.90;;;;;;5021384;28;20437;-39
2022/02/25 12:17:48;;;;;;;9.03;5.90;;;6.30;99.90;;;;;;5030275;28;20935;-39
2022/02/25 12:20:19;;;;;;;9.90;6.83;;;6.60;99.90;;;;;;5035507;28;20432;-39
2022/02/25 12:23:02;;;;;;;10.90;6.30;;;6.20;99.90;;;;;;5044249;28;20519;-39
2022/02/25 12:25:40;;;;;;;13.97;7.10;;;6.50;99.90;;;;;;5049784;28;20428;-39
2022/02/25 12:28:30;;;;;;;18.30;7.83;;;6.70;99.90;;;;;;5050124;28;20439;-39
2022/02/25 12:31:00;;;;;;;13.93;5.90;;;6.90;99.90;;;;;;5016764;28;20440;-39
2022/02/25 12:33:36;;;;;;;13.43;5.90;;;6.80;99.90;;;;;;5030096;28;20433;-39
2022/02/25 12:36:27;;;;;;;8.43;5.63;;;6.80;99.90;;;;;;5029536;28;20451;-40
2022/02/25 12:38:59;;;;;;;12.53;5.27;;;6.90;99.90;;;;;;5029748;28;20437;-40
2022/02/25 12:41:27;;;;;;;9.50;5.90;;;6.80;99.90;;;;;;5029211;28;20418;-39
2022/02/25 12:44:00;;;;;;;15.23;6.17;;;6.80;99.90;;;;;;5027443;28;20453;-39
2022/02/25 12:46:51;;;;;;;11.93;6.40;;;6.70;99.90;;;;;;5022093;28;20951;-39
2022/02/25 12:49:20;;;;;;;9.63;6.60;;;6.90;99.90;;;;;;5029860;28;20855;-40
2022/02/25 12:51:47;;;;;;;12.73;5.00;;;6.90;99.90;;;;;;5029025;28;20437;-40
2022/02/25 12:54:15;;;;;;;12.17;3.60;;;6.70;99.90;;;;;;5030280;28;20505;-39
2022/02/25 12:56:52;;;;;;;5.33;2.80;;;6.70;99.90;;;;;;5029222;28;20848;-41
2022/02/25 12:59:39;;;;;;;4.80;2.60;;;6.90;99.90;;;;;;5024495;28;20440;-40
2022/02/25 13:02:07;;;;;;;5.83;2.10;;;6.90;99.90;;;;;;5027305;28;20959;-39
2022/02/25 13:04:43;;;;;;;6.53;2.27;;;7.00;99.90;;;;;;5028276;28;20463;-40
2022/02/25 13:07:09;;;;;;;6.80;1.97;;;6.90;99.90;;;;;;5029047;28;20837;-40